sensor_id;sensor_type;location;lat;lon;timestamp;P1;durP1;ratioP1;P2;durP2;ratioP2
32786;SDS011;19139;49.372;8.580;2023-08-31T00:02:26;2.10;;;1.40;;
32786;SDS011;19139;49.372;8.580;2023-08-31T00:04:52;2.00;;;1.43;;
32786;SDS011;19139;49.372;8.580;2023-08-31T00:07:22;2.97;;;1.30;;
32786;SDS011;19139;49.372;8.580;2023-08-31T00:09:48;1.50;;;1.40;;
32786;SDS011;19139;49.372;8.580;2023-08-31T00:12:16;1.90;;;1.50;;
32786;SDS011;19139;49.372;8.580;2023-08-31T00:14:42;1.73;;;1.20;;
32786;SDS011;19139;49.372;8.580;2023-08-31T00:17:09;2.80;;;1.40;;
32786;SDS011;19139;49.372;8.580;2023-08-31T00:19:36;1.20;;;1.10;;
32786;SDS011;19139;49.372;8.580;2023-08-31T00:22:02;2.60;;;1.10;;
32786;SDS011;19139;49.372;8.580;2023-08-31T00:24:30;2.73;;;1.77;;
32786;SDS011;19139;49.372;8.580;2023-08-31T00:26:59;1.80;;;1.27;;
32786;SDS011;19139;49.372;8.580;2023-08-31T00:29:26;2.20;;;1.23;;
32786;SDS011;19139;49.372;8.580;2023-08-31T00:31:53;1.97;;;1.33;;
32786;SDS011;19139;49.372;8.580;2023-08-31T00:34:20;1.50;;;1.40;;
32786;SDS011;19139;49.372;8.580;2023-08-31T00:36:46;1.77;;;1.27;;
32786;SDS011;19139;49.372;8.580;2023-08-31T00:39:14;1.70;;;1.50;;
32786;SDS011;19139;49.372;8.580;2023-08-31T00:41:42;1.40;;;1.30;;
32786;SDS011;19139;49.372;8.580;2023-08-31T00:44:11;1.70;;;1.20;;
32786;SDS011;19139;49.372;8.580;2023-08-31T00:46:40;1.33;;;1.23;;
32786;SDS011;19139;49.372;8.580;2023-08-31T00:49:07;1.50;;;1.30;;
32786;SDS011;19139;49.372;8.580;2023-08-31T00:51:35;1.40;;;1.10;;
32786;SDS011;19139;49.372;8.580;2023-08-31T00:54:03;1.87;;;1.40;;
32786;SDS011;19139;49.372;8.580;2023-08-31T00:56:31;1.60;;;1.37;;
32786;SDS011;19139;49.372;8.580;2023-08-31T00:58:58;1.10;;;1.00;;
32786;SDS011;19139;49.372;8.580;2023-08-31T01:04:29;2.13;;;1.40;;
32786;SDS011;19139;49.372;8.580;2023-08-31T01:07:09;1.30;;;1.17;;
32786;SDS011;19139;49.372;8.580;2023-08-31T01:09:50;1.90;;;1.30;;
32786;SDS011;19139;49.372;8.580;2023-08-31T01:12:34;1.80;;;1.53;;
32786;SDS011;19139;49.372;8.580;2023-08-31T01:15:09;1.53;;;1.30;;
32786;SDS011;19139;49.372;8.580;2023-08-31T01:17:42;1.87;;;1.40;;
32786;SDS011;19139;49.372;8.580;2023-08-31T01:20:14;1.73;;;1.50;;
32786;SDS011;19139;49.372;8.580;2023-08-31T01:25:24;1.50;;;0.90;;
32786;SDS011;19139;49.372;8.580;2023-08-31T01:27:52;1.33;;;1.23;;
32786;SDS011;19139;49.372;8.580;2023-08-31T01:30:19;1.83;;;1.43;;
32786;SDS011;19139;49.372;8.580;2023-08-31T01:32:47;1.90;;;1.43;;
32786;SDS011;19139;49.372;8.580;2023-08-31T01:35:14;2.07;;;1.03;;
32786;SDS011;19139;49.372;8.580;2023-08-31T01:37:47;1.40;;;1.03;;
32786;SDS011;19139;49.372;8.580;2023-08-31T01:40:28;1.37;;;1.27;;
32786;SDS011;19139;49.372;8.580;2023-08-31T01:43:02;1.60;;;1.17;;
32786;SDS011;19139;49.372;8.580;2023-08-31T01:45:31;1.67;;;1.20;;
32786;SDS011;19139;49.372;8.580;2023-08-31T01:48:00;1.10;;;0.97;;
32786;SDS011;19139;49.372;8.580;2023-08-31T01:50:27;1.70;;;1.13;;
32786;SDS011;19139;49.372;8.580;2023-08-31T01:52:53;1.33;;;1.03;;
32786;SDS011;19139;49.372;8.580;2023-08-31T01:55:20;1.20;;;1.00;;
32786;SDS011;19139;49.372;8.580;2023-08-31T01:57:48;1.30;;;1.10;;
32786;SDS011;19139;49.372;8.580;2023-08-31T02:00:15;2.10;;;1.90;;
32786;SDS011;19139;49.372;8.580;2023-08-31T02:02:43;1.60;;;1.13;;
32786;SDS011;19139;49.372;8.580;2023-08-31T02:05:10;1.20;;;1.00;;
32786;SDS011;19139;49.372;8.580;2023-08-31T02:07:37;1.53;;;1.40;;
32786;SDS011;19139;49.372;8.580;2023-08-31T02:10:03;1.47;;;0.90;;
32786;SDS011;19139;49.372;8.580;2023-08-31T02:12:33;2.93;;;1.40;;
32786;SDS011;19139;49.372;8.580;2023-08-31T02:15:05;2.60;;;1.20;;
32786;SDS011;19139;49.372;8.580;2023-08-31T02:17:35;1.13;;;0.97;;
32786;SDS011;19139;49.372;8.580;2023-08-31T02:20:02;1.30;;;1.20;;
32786;SDS011;19139;49.372;8.580;2023-08-31T02:22:33;1.27;;;1.10;;
32786;SDS011;19139;49.372;8.580;2023-08-31T02:25:00;1.40;;;1.20;;
32786;SDS011;19139;49.372;8.580;2023-08-31T02:27:27;1.50;;;1.20;;
32786;SDS011;19139;49.372;8.580;2023-08-31T02:29:54;2.10;;;1.47;;
32786;SDS011;19139;49.372;8.580;2023-08-31T02:32:21;1.30;;;1.20;;
32786;SDS011;19139;49.372;8.580;2023-08-31T02:34:47;1.57;;;1.20;;
32786;SDS011;19139;49.372;8.580;2023-08-31T02:37:15;1.33;;;0.93;;
32786;SDS011;19139;49.372;8.580;2023-08-31T02:39:42;1.70;;;1.30;;
32786;SDS011;19139;49.372;8.580;2023-08-31T02:42:08;1.20;;;1.10;;
32786;SDS011;19139;49.372;8.580;2023-08-31T02:44:35;1.17;;;0.87;;
32786;SDS011;19139;49.372;8.580;2023-08-31T02:47:02;2.03;;;0.90;;
32786;SDS011;19139;49.372;8.580;2023-08-31T02:49:28;1.23;;;1.00;;
32786;SDS011;19139;49.372;8.580;2023-08-31T02:51:55;1.10;;;1.00;;
32786;SDS011;19139;49.372;8.580;2023-08-31T02:54:22;1.27;;;1.10;;
32786;SDS011;19139;49.372;8.580;2023-08-31T02:56:48;1.17;;;0.97;;
32786;SDS011;19139;49.372;8.580;2023-08-31T02:59:15;1.27;;;1.17;;
32786;SDS011;19139;49.372;8.580;2023-08-31T03:01:43;1.33;;;1.23;;
32786;SDS011;19139;49.372;8.580;2023-08-31T03:04:12;1.43;;;0.80;;
32786;SDS011;19139;49.372;8.580;2023-08-31T03:06:39;1.40;;;1.10;;
32786;SDS011;19139;49.372;8.580;2023-08-31T03:09:06;1.30;;;1.00;;
32786;SDS011;19139;49.372;8.580;2023-08-31T03:11:32;1.20;;;1.10;;
32786;SDS011;19139;49.372;8.580;2023-08-31T03:13:59;2.30;;;1.30;;
32786;SDS011;19139;49.372;8.580;2023-08-31T03:16:26;1.10;;;1.00;;
32786;SDS011;19139;49.372;8.580;2023-08-31T03:18:52;1.80;;;1.10;;
32786;SDS011;19139;49.372;8.580;2023-08-31T03:21:19;1.60;;;0.90;;
32786;SDS011;19139;49.372;8.580;2023-08-31T03:23:46;2.53;;;1.37;;
32786;SDS011;19139;49.372;8.580;2023-08-31T03:26:13;1.47;;;1.37;;
32786;SDS011;19139;49.372;8.580;2023-08-31T03:28:39;1.60;;;1.10;;
32786;SDS011;19139;49.372;8.580;2023-08-31T03:31:06;2.03;;;1.40;;
32786;SDS011;19139;49.372;8.580;2023-08-31T03:33:33;1.20;;;1.10;;
32786;SDS011;19139;49.372;8.580;2023-08-31T03:36:03;1.23;;;0.93;;
32786;SDS011;19139;49.372;8.580;2023-08-31T03:38:31;0.87;;;0.87;;
32786;SDS011;19139;49.372;8.580;2023-08-31T03:40:58;2.43;;;1.20;;
32786;SDS011;19139;49.372;8.580;2023-08-31T03:43:25;1.43;;;1.13;;
32786;SDS011;19139;49.372;8.580;2023-08-31T03:45:54;1.83;;;1.07;;
32786;SDS011;19139;49.372;8.580;2023-08-31T03:48:25;1.47;;;1.37;;
32786;SDS011;19139;49.372;8.580;2023-08-31T03:50:53;1.70;;;1.60;;
32786;SDS011;19139;49.372;8.580;2023-08-31T03:53:20;1.67;;;1.30;;
32786;SDS011;19139;49.372;8.580;2023-08-31T03:55:47;2.00;;;1.33;;
32786;SDS011;19139;49.372;8.580;2023-08-31T03:58:13;1.30;;;1.20;;
32786;SDS011;19139;49.372;8.580;2023-08-31T04:00:40;1.43;;;1.30;;
32786;SDS011;19139;49.372;8.580;2023-08-31T04:03:08;1.27;;;0.97;;
32786;SDS011;19139;49.372;8.580;2023-08-31T04:05:36;1.40;;;1.20;;
32786;SDS011;19139;49.372;8.580;2023-08-31T04:08:03;1.60;;;1.20;;
32786;SDS011;19139;49.372;8.580;2023-08-31T04:10:30;1.80;;;1.17;;
32786;SDS011;19139;49.372;8.580;2023-08-31T04:12:58;1.63;;;1.40;;
32786;SDS011;19139;49.372;8.580;2023-08-31T04:15:25;1.30;;;1.17;;
32786;SDS011;19139;49.372;8.580;2023-08-31T04:17:51;1.40;;;1.00;;
32786;SDS011;19139;49.372;8.580;2023-08-31T04:20:18;1.37;;;1.10;;
32786;SDS011;19139;49.372;8.580;2023-08-31T04:22:45;1.40;;;1.20;;
32786;SDS011;19139;49.372;8.580;2023-08-31T04:25:12;1.27;;;1.17;;
32786;SDS011;19139;49.372;8.580;2023-08-31T04:27:38;1.43;;;1.20;;
32786;SDS011;19139;49.372;8.580;2023-08-31T04:30:06;1.30;;;0.93;;
32786;SDS011;19139;49.372;8.580;2023-08-31T04:32:33;1.40;;;1.13;;
32786;SDS011;19139;49.372;8.580;2023-08-31T04:35:02;1.80;;;1.60;;
32786;SDS011;19139;49.372;8.580;2023-08-31T04:37:32;1.50;;;1.40;;
32786;SDS011;19139;49.372;8.580;2023-08-31T04:39:59;1.20;;;1.10;;
32786;SDS011;19139;49.372;8.580;2023-08-31T04:42:26;1.10;;;1.00;;
32786;SDS011;19139;49.372;8.580;2023-08-31T04:44:52;1.37;;;1.27;;
32786;SDS011;19139;49.372;8.580;2023-08-31T04:47:19;1.40;;;1.07;;
32786;SDS011;19139;49.372;8.580;2023-08-31T04:49:46;1.43;;;1.33;;
32786;SDS011;19139;49.372;8.580;2023-08-31T04:52:13;1.40;;;1.23;;
32786;SDS011;19139;49.372;8.580;2023-08-31T04:54:39;1.40;;;1.03;;
32786;SDS011;19139;49.372;8.580;2023-08-31T04:57:06;1.30;;;1.20;;
32786;SDS011;19139;49.372;8.580;2023-08-31T04:59:33;1.40;;;1.20;;
32786;SDS011;19139;49.372;8.580;2023-08-31T05:02:00;1.47;;;1.27;;
32786;SDS011;19139;49.372;8.580;2023-08-31T05:04:27;1.53;;;1.20;;
32786;SDS011;19139;49.372;8.580;2023-08-31T05:06:55;1.67;;;1.23;;
32786;SDS011;19139;49.372;8.580;2023-08-31T05:09:21;2.37;;;1.23;;
32786;SDS011;19139;49.372;8.580;2023-08-31T05:11:49;1.60;;;1.30;;
32786;SDS011;19139;49.372;8.580;2023-08-31T05:14:16;1.27;;;1.17;;
32786;SDS011;19139;49.372;8.580;2023-08-31T05:16:43;1.40;;;1.30;;
32786;SDS011;19139;49.372;8.580;2023-08-31T05:19:09;1.73;;;1.30;;
32786;SDS011;19139;49.372;8.580;2023-08-31T05:21:36;1.27;;;1.17;;
32786;SDS011;19139;49.372;8.580;2023-08-31T05:24:03;1.50;;;1.40;;
32786;SDS011;19139;49.372;8.580;2023-08-31T05:26:29;1.20;;;1.10;;
32786;SDS011;19139;49.372;8.580;2023-08-31T05:28:56;1.30;;;1.20;;
32786;SDS011;19139;49.372;8.580;2023-08-31T05:31:23;1.50;;;1.07;;
32786;SDS011;19139;49.372;8.580;2023-08-31T05:33:49;1.70;;;1.20;;
32786;SDS011;19139;49.372;8.580;2023-08-31T05:36:16;1.20;;;1.10;;
32786;SDS011;19139;49.372;8.580;2023-08-31T05:38:43;1.67;;;1.30;;
32786;SDS011;19139;49.372;8.580;2023-08-31T05:41:09;1.20;;;1.10;;
32786;SDS011;19139;49.372;8.580;2023-08-31T05:43:37;1.50;;;1.33;;
32786;SDS011;19139;49.372;8.580;2023-08-31T05:46:06;1.37;;;1.17;;
32786;SDS011;19139;49.372;8.580;2023-08-31T05:48:34;1.20;;;1.10;;
32786;SDS011;19139;49.372;8.580;2023-08-31T05:51:02;3.53;;;1.47;;
32786;SDS011;19139;49.372;8.580;2023-08-31T05:53:32;2.13;;;1.40;;
32786;SDS011;19139;49.372;8.580;2023-08-31T05:55:59;1.30;;;1.20;;
32786;SDS011;19139;49.372;8.580;2023-08-31T05:58:34;1.30;;;1.00;;
32786;SDS011;19139;49.372;8.580;2023-08-31T06:01:02;2.30;;;1.30;;
32786;SDS011;19139;49.372;8.580;2023-08-31T06:03:30;1.70;;;1.37;;
32786;SDS011;19139;49.372;8.580;2023-08-31T06:05:57;1.40;;;1.30;;
32786;SDS011;19139;49.372;8.580;2023-08-31T06:08:25;1.63;;;1.43;;
32786;SDS011;19139;49.372;8.580;2023-08-31T06:10:52;1.50;;;1.30;;
32786;SDS011;19139;49.372;8.580;2023-08-31T06:13:19;1.77;;;1.27;;
32786;SDS011;19139;49.372;8.580;2023-08-31T06:15:45;2.20;;;1.13;;
32786;SDS011;19139;49.372;8.580;2023-08-31T06:18:12;1.93;;;1.60;;
32786;SDS011;19139;49.372;8.580;2023-08-31T06:20:39;1.50;;;1.40;;
32786;SDS011;19139;49.372;8.580;2023-08-31T06:23:06;2.20;;;1.70;;
32786;SDS011;19139;49.372;8.580;2023-08-31T06:25:33;1.87;;;1.20;;
32786;SDS011;19139;49.372;8.580;2023-08-31T06:27:59;1.23;;;1.10;;
32786;SDS011;19139;49.372;8.580;2023-08-31T06:30:26;1.87;;;1.13;;
32786;SDS011;19139;49.372;8.580;2023-08-31T06:32:52;1.57;;;1.43;;
32786;SDS011;19139;49.372;8.580;2023-08-31T06:35:19;1.67;;;1.20;;
32786;SDS011;19139;49.372;8.580;2023-08-31T06:37:47;1.83;;;1.27;;
32786;SDS011;19139;49.372;8.580;2023-08-31T06:40:14;1.50;;;1.20;;
32786;SDS011;19139;49.372;8.580;2023-08-31T06:42:40;1.70;;;1.53;;
32786;SDS011;19139;49.372;8.580;2023-08-31T06:45:07;1.90;;;1.43;;
32786;SDS011;19139;49.372;8.580;2023-08-31T06:47:34;2.00;;;1.30;;
32786;SDS011;19139;49.372;8.580;2023-08-31T06:50:01;1.60;;;1.37;;
32786;SDS011;19139;49.372;8.580;2023-08-31T06:52:30;1.10;;;1.00;;
32786;SDS011;19139;49.372;8.580;2023-08-31T06:54:58;2.10;;;1.27;;
32786;SDS011;19139;49.372;8.580;2023-08-31T06:57:25;1.70;;;1.57;;
32786;SDS011;19139;49.372;8.580;2023-08-31T06:59:53;1.10;;;1.00;;
32786;SDS011;19139;49.372;8.580;2023-08-31T07:02:20;1.70;;;1.20;;
32786;SDS011;19139;49.372;8.580;2023-08-31T07:04:51;2.47;;;1.40;;
32786;SDS011;19139;49.372;8.580;2023-08-31T07:07:18;1.70;;;1.53;;
32786;SDS011;19139;49.372;8.580;2023-08-31T07:09:45;1.40;;;1.20;;
32786;SDS011;19139;49.372;8.580;2023-08-31T07:12:13;1.97;;;1.73;;
32786;SDS011;19139;49.372;8.580;2023-08-31T07:14:39;1.97;;;1.33;;
32786;SDS011;19139;49.372;8.580;2023-08-31T07:17:06;1.97;;;1.27;;
32786;SDS011;19139;49.372;8.580;2023-08-31T07:19:36;1.73;;;1.50;;
32786;SDS011;19139;49.372;8.580;2023-08-31T07:22:03;2.37;;;1.40;;
32786;SDS011;19139;49.372;8.580;2023-08-31T07:24:32;3.03;;;1.73;;
32786;SDS011;19139;49.372;8.580;2023-08-31T07:27:01;2.33;;;1.40;;
32786;SDS011;19139;49.372;8.580;2023-08-31T07:29:28;2.53;;;1.30;;
32786;SDS011;19139;49.372;8.580;2023-08-31T07:31:55;1.90;;;1.30;;
32786;SDS011;19139;49.372;8.580;2023-08-31T07:34:23;1.90;;;1.43;;
32786;SDS011;19139;49.372;8.580;2023-08-31T07:36:50;1.77;;;1.63;;
32786;SDS011;19139;49.372;8.580;2023-08-31T07:39:17;2.10;;;1.77;;
32786;SDS011;19139;49.372;8.580;2023-08-31T07:41:46;1.73;;;1.57;;
32786;SDS011;19139;49.372;8.580;2023-08-31T07:44:14;1.63;;;1.30;;
32786;SDS011;19139;49.372;8.580;2023-08-31T07:46:40;1.60;;;1.50;;
32786;SDS011;19139;49.372;8.580;2023-08-31T07:49:07;1.80;;;1.07;;
32786;SDS011;19139;49.372;8.580;2023-08-31T07:51:34;2.13;;;1.70;;
32786;SDS011;19139;49.372;8.580;2023-08-31T07:54:01;1.60;;;1.40;;
32786;SDS011;19139;49.372;8.580;2023-08-31T07:56:29;2.30;;;1.50;;
32786;SDS011;19139;49.372;8.580;2023-08-31T07:58:55;2.53;;;1.63;;
32786;SDS011;19139;49.372;8.580;2023-08-31T08:01:22;1.60;;;1.33;;
32786;SDS011;19139;49.372;8.580;2023-08-31T08:03:49;1.43;;;1.33;;
32786;SDS011;19139;49.372;8.580;2023-08-31T08:06:16;1.60;;;1.50;;
32786;SDS011;19139;49.372;8.580;2023-08-31T08:08:43;1.93;;;1.50;;
32786;SDS011;19139;49.372;8.580;2023-08-31T08:11:10;2.07;;;1.40;;
32786;SDS011;19139;49.372;8.580;2023-08-31T08:13:36;1.60;;;1.33;;
32786;SDS011;19139;49.372;8.580;2023-08-31T08:16:03;1.90;;;1.40;;
32786;SDS011;19139;49.372;8.580;2023-08-31T08:18:30;1.77;;;1.53;;
32786;SDS011;19139;49.372;8.580;2023-08-31T08:20:57;1.97;;;1.40;;
32786;SDS011;19139;49.372;8.580;2023-08-31T08:23:23;1.57;;;1.30;;
32786;SDS011;19139;49.372;8.580;2023-08-31T08:25:50;1.67;;;1.57;;
32786;SDS011;19139;49.372;8.580;2023-08-31T08:28:17;1.40;;;1.30;;
32786;SDS011;19139;49.372;8.580;2023-08-31T08:30:43;2.10;;;1.67;;
32786;SDS011;19139;49.372;8.580;2023-08-31T08:33:10;1.70;;;1.60;;
32786;SDS011;19139;49.372;8.580;2023-08-31T08:35:38;1.57;;;1.30;;
32786;SDS011;19139;49.372;8.580;2023-08-31T08:38:05;1.33;;;1.23;;
32786;SDS011;19139;49.372;8.580;2023-08-31T08:40:32;1.63;;;1.50;;
32786;SDS011;19139;49.372;8.580;2023-08-31T08:43:02;1.90;;;1.70;;
32786;SDS011;19139;49.372;8.580;2023-08-31T08:45:38;1.40;;;1.10;;
32786;SDS011;19139;49.372;8.580;2023-08-31T08:48:08;1.47;;;1.37;;
32786;SDS011;19139;49.372;8.580;2023-08-31T08:50:36;2.87;;;1.93;;
32786;SDS011;19139;49.372;8.580;2023-08-31T08:53:03;1.80;;;1.40;;
32786;SDS011;19139;49.372;8.580;2023-08-31T08:55:31;1.60;;;1.50;;
32786;SDS011;19139;49.372;8.580;2023-08-31T08:57:58;1.57;;;1.13;;
32786;SDS011;19139;49.372;8.580;2023-08-31T09:00:29;1.53;;;1.37;;
32786;SDS011;19139;49.372;8.580;2023-08-31T09:02:56;1.67;;;1.30;;
32786;SDS011;19139;49.372;8.580;2023-08-31T09:05:23;2.90;;;1.60;;
32786;SDS011;19139;49.372;8.580;2023-08-31T09:08:07;3.33;;;2.40;;
32786;SDS011;19139;49.372;8.580;2023-08-31T09:10:42;2.87;;;1.70;;
32786;SDS011;19139;49.372;8.580;2023-08-31T09:13:10;4.27;;;2.03;;
32786;SDS011;19139;49.372;8.580;2023-08-31T09:15:43;2.83;;;1.70;;
32786;SDS011;19139;49.372;8.580;2023-08-31T09:18:22;2.33;;;1.37;;
32786;SDS011;19139;49.372;8.580;2023-08-31T09:20:51;2.80;;;1.60;;
32786;SDS011;19139;49.372;8.580;2023-08-31T09:23:19;2.00;;;1.53;;
32786;SDS011;19139;49.372;8.580;2023-08-31T09:25:46;4.00;;;1.80;;
32786;SDS011;19139;49.372;8.580;2023-08-31T09:28:15;3.40;;;1.80;;
32786;SDS011;19139;49.372;8.580;2023-08-31T09:30:48;2.70;;;1.57;;
32786;SDS011;19139;49.372;8.580;2023-08-31T09:33:18;2.60;;;1.73;;
32786;SDS011;19139;49.372;8.580;2023-08-31T09:35:51;2.23;;;1.60;;
32786;SDS011;19139;49.372;8.580;2023-08-31T09:38:18;2.97;;;1.70;;
32786;SDS011;19139;49.372;8.580;2023-08-31T09:40:45;7.97;;;2.40;;
32786;SDS011;19139;49.372;8.580;2023-08-31T09:43:18;8.03;;;2.30;;
32786;SDS011;19139;49.372;8.580;2023-08-31T09:45:49;8.43;;;2.20;;
32786;SDS011;19139;49.372;8.580;2023-08-31T09:48:17;4.03;;;2.43;;
32786;SDS011;19139;49.372;8.580;2023-08-31T09:50:46;6.43;;;2.83;;
32786;SDS011;19139;49.372;8.580;2023-08-31T09:53:14;4.17;;;1.77;;
32786;SDS011;19139;49.372;8.580;2023-08-31T09:55:43;4.30;;;1.97;;
32786;SDS011;19139;49.372;8.580;2023-08-31T09:58:10;5.77;;;1.97;;
32786;SDS011;19139;49.372;8.580;2023-08-31T10:00:42;5.07;;;2.00;;
32786;SDS011;19139;49.372;8.580;2023-08-31T10:03:10;5.50;;;2.30;;
32786;SDS011;19139;49.372;8.580;2023-08-31T10:05:45;5.23;;;2.13;;
32786;SDS011;19139;49.372;8.580;2023-08-31T10:08:13;4.00;;;1.87;;
32786;SDS011;19139;49.372;8.580;2023-08-31T10:10:42;4.73;;;2.50;;
32786;SDS011;19139;49.372;8.580;2023-08-31T10:13:09;4.00;;;2.10;;
32786;SDS011;19139;49.372;8.580;2023-08-31T10:15:38;3.73;;;1.70;;
32786;SDS011;19139;49.372;8.580;2023-08-31T10:18:06;3.57;;;2.30;;
32786;SDS011;19139;49.372;8.580;2023-08-31T10:20:34;4.00;;;1.93;;
32786;SDS011;19139;49.372;8.580;2023-08-31T10:23:05;3.83;;;2.30;;
32786;SDS011;19139;49.372;8.580;2023-08-31T10:28:23;3.87;;;2.47;;
32786;SDS011;19139;49.372;8.580;2023-08-31T10:31:10;6.03;;;1.80;;
32786;SDS011;19139;49.372;8.580;2023-08-31T10:33:43;6.57;;;1.77;;
32786;SDS011;19139;49.372;8.580;2023-08-31T10:36:17;4.07;;;1.70;;
32786;SDS011;19139;49.372;8.580;2023-08-31T10:38:45;2.27;;;1.90;;
32786;SDS011;19139;49.372;8.580;2023-08-31T10:46:17;4.87;;;2.10;;
32786;SDS011;19139;49.372;8.580;2023-08-31T10:51:38;3.70;;;2.00;;
32786;SDS011;19139;49.372;8.580;2023-08-31T10:54:13;2.77;;;1.50;;
32786;SDS011;19139;49.372;8.580;2023-08-31T10:56:59;3.30;;;1.60;;
32786;SDS011;19139;49.372;8.580;2023-08-31T10:59:40;1.97;;;1.37;;
32786;SDS011;19139;49.372;8.580;2023-08-31T11:07:41;2.80;;;2.00;;
32786;SDS011;19139;49.372;8.580;2023-08-31T11:10:16;3.03;;;1.77;;
32786;SDS011;19139;49.372;8.580;2023-08-31T11:12:47;3.30;;;1.77;;
32786;SDS011;19139;49.372;8.580;2023-08-31T11:15:16;2.57;;;1.47;;
32786;SDS011;19139;49.372;8.580;2023-08-31T11:17:43;3.27;;;1.73;;
32786;SDS011;19139;49.372;8.580;2023-08-31T11:20:13;3.47;;;1.40;;
32786;SDS011;19139;49.372;8.580;2023-08-31T11:22:42;2.83;;;1.50;;
32786;SDS011;19139;49.372;8.580;2023-08-31T11:25:11;5.37;;;2.30;;
32786;SDS011;19139;49.372;8.580;2023-08-31T11:27:39;3.43;;;1.77;;
32786;SDS011;19139;49.372;8.580;2023-08-31T11:30:15;4.17;;;1.73;;
32786;SDS011;19139;49.372;8.580;2023-08-31T11:32:46;3.03;;;1.77;;
32786;SDS011;19139;49.372;8.580;2023-08-31T11:35:14;2.60;;;1.80;;
32786;SDS011;19139;49.372;8.580;2023-08-31T11:37:45;2.93;;;1.80;;
32786;SDS011;19139;49.372;8.580;2023-08-31T11:40:15;4.27;;;2.20;;
32786;SDS011;19139;49.372;8.580;2023-08-31T11:42:42;3.43;;;1.90;;
32786;SDS011;19139;49.372;8.580;2023-08-31T11:45:10;2.33;;;1.73;;
32786;SDS011;19139;49.372;8.580;2023-08-31T11:47:39;3.23;;;1.43;;
32786;SDS011;19139;49.372;8.580;2023-08-31T11:50:06;3.10;;;1.63;;
32786;SDS011;19139;49.372;8.580;2023-08-31T11:52:34;3.20;;;1.27;;
32786;SDS011;19139;49.372;8.580;2023-08-31T11:55:01;2.40;;;2.20;;
32786;SDS011;19139;49.372;8.580;2023-08-31T11:57:28;2.53;;;1.60;;
32786;SDS011;19139;49.372;8.580;2023-08-31T11:59:55;3.10;;;1.67;;
32786;SDS011;19139;49.372;8.580;2023-08-31T12:02:22;2.97;;;1.80;;
32786;SDS011;19139;49.372;8.580;2023-08-31T12:04:49;2.30;;;2.00;;
32786;SDS011;19139;49.372;8.580;2023-08-31T12:07:17;2.47;;;1.77;;
32786;SDS011;19139;49.372;8.580;2023-08-31T12:09:45;2.63;;;2.03;;
32786;SDS011;19139;49.372;8.580;2023-08-31T12:12:14;6.20;;;2.00;;
32786;SDS011;19139;49.372;8.580;2023-08-31T12:14:44;2.27;;;1.47;;
32786;SDS011;19139;49.372;8.580;2023-08-31T12:17:11;3.47;;;2.00;;
32786;SDS011;19139;49.372;8.580;2023-08-31T12:19:40;3.57;;;2.07;;
32786;SDS011;19139;49.372;8.580;2023-08-31T12:22:07;3.20;;;1.73;;
32786;SDS011;19139;49.372;8.580;2023-08-31T12:24:38;3.07;;;1.80;;
32786;SDS011;19139;49.372;8.580;2023-08-31T12:27:09;4.47;;;2.40;;
32786;SDS011;19139;49.372;8.580;2023-08-31T12:29:37;5.27;;;1.60;;
32786;SDS011;19139;49.372;8.580;2023-08-31T12:32:03;2.90;;;2.00;;
32786;SDS011;19139;49.372;8.580;2023-08-31T12:34:31;1.97;;;1.60;;
32786;SDS011;19139;49.372;8.580;2023-08-31T12:36:58;4.10;;;1.50;;
32786;SDS011;19139;49.372;8.580;2023-08-31T12:39:28;1.87;;;1.60;;
32786;SDS011;19139;49.372;8.580;2023-08-31T12:41:55;2.47;;;1.50;;
32786;SDS011;19139;49.372;8.580;2023-08-31T12:44:41;3.60;;;1.80;;
32786;SDS011;19139;49.372;8.580;2023-08-31T12:47:08;2.93;;;1.70;;
32786;SDS011;19139;49.372;8.580;2023-08-31T12:49:35;3.80;;;2.00;;
32786;SDS011;19139;49.372;8.580;2023-08-31T12:52:02;3.43;;;1.73;;
32786;SDS011;19139;49.372;8.580;2023-08-31T12:54:29;3.70;;;1.67;;
32786;SDS011;19139;49.372;8.580;2023-08-31T12:56:55;3.40;;;1.83;;
32786;SDS011;19139;49.372;8.580;2023-08-31T12:59:22;3.33;;;2.07;;
32786;SDS011;19139;49.372;8.580;2023-08-31T13:01:49;2.73;;;1.63;;
32786;SDS011;19139;49.372;8.580;2023-08-31T13:04:16;3.60;;;1.73;;
32786;SDS011;19139;49.372;8.580;2023-08-31T13:06:42;2.80;;;1.57;;
32786;SDS011;19139;49.372;8.580;2023-08-31T13:09:09;3.30;;;1.70;;
32786;SDS011;19139;49.372;8.580;2023-08-31T13:11:36;3.10;;;1.63;;
32786;SDS011;19139;49.372;8.580;2023-08-31T13:14:02;3.83;;;1.60;;
32786;SDS011;19139;49.372;8.580;2023-08-31T13:16:29;2.87;;;1.70;;
32786;SDS011;19139;49.372;8.580;2023-08-31T13:18:56;2.60;;;1.67;;
32786;SDS011;19139;49.372;8.580;2023-08-31T13:21:23;2.33;;;1.70;;
32786;SDS011;19139;49.372;8.580;2023-08-31T13:23:49;3.73;;;2.00;;
32786;SDS011;19139;49.372;8.580;2023-08-31T13:26:16;3.23;;;1.70;;
32786;SDS011;19139;49.372;8.580;2023-08-31T13:28:43;3.90;;;2.00;;
32786;SDS011;19139;49.372;8.580;2023-08-31T13:31:09;4.23;;;2.10;;
32786;SDS011;19139;49.372;8.580;2023-08-31T13:33:38;3.03;;;1.67;;
32786;SDS011;19139;49.372;8.580;2023-08-31T13:36:05;1.73;;;1.50;;
32786;SDS011;19139;49.372;8.580;2023-08-31T13:38:31;2.33;;;1.60;;
32786;SDS011;19139;49.372;8.580;2023-08-31T13:40:58;3.20;;;1.67;;
32786;SDS011;19139;49.372;8.580;2023-08-31T13:43:25;3.23;;;1.50;;
32786;SDS011;19139;49.372;8.580;2023-08-31T13:45:52;4.23;;;1.73;;
32786;SDS011;19139;49.372;8.580;2023-08-31T13:48:19;2.20;;;1.70;;
32786;SDS011;19139;49.372;8.580;2023-08-31T13:50:46;4.53;;;2.10;;
32786;SDS011;19139;49.372;8.580;2023-08-31T13:53:13;2.47;;;1.70;;
32786;SDS011;19139;49.372;8.580;2023-08-31T13:55:40;3.70;;;2.07;;
32786;SDS011;19139;49.372;8.580;2023-08-31T13:58:07;3.40;;;1.80;;
32786;SDS011;19139;49.372;8.580;2023-08-31T14:00:35;4.67;;;2.33;;
32786;SDS011;19139;49.372;8.580;2023-08-31T14:03:04;4.10;;;2.10;;
32786;SDS011;19139;49.372;8.580;2023-08-31T14:05:31;3.50;;;1.97;;
32786;SDS011;19139;49.372;8.580;2023-08-31T14:07:58;3.83;;;2.10;;
32786;SDS011;19139;49.372;8.580;2023-08-31T14:10:27;3.33;;;1.83;;
32786;SDS011;19139;49.372;8.580;2023-08-31T14:12:54;3.83;;;2.00;;
32786;SDS011;19139;49.372;8.580;2023-08-31T14:15:21;2.70;;;1.70;;
32786;SDS011;19139;49.372;8.580;2023-08-31T14:17:49;4.67;;;2.00;;
32786;SDS011;19139;49.372;8.580;2023-08-31T14:20:19;4.60;;;2.30;;
32786;SDS011;19139;49.372;8.580;2023-08-31T14:22:45;2.47;;;1.63;;
32786;SDS011;19139;49.372;8.580;2023-08-31T14:25:12;3.00;;;1.83;;
32786;SDS011;19139;49.372;8.580;2023-08-31T14:27:40;3.70;;;2.10;;
32786;SDS011;19139;49.372;8.580;2023-08-31T14:30:07;4.00;;;1.40;;
32786;SDS011;19139;49.372;8.580;2023-08-31T14:32:34;3.17;;;1.80;;
32786;SDS011;19139;49.372;8.580;2023-08-31T14:35:01;3.03;;;1.90;;
32786;SDS011;19139;49.372;8.580;2023-08-31T14:37:27;2.17;;;1.70;;
32786;SDS011;19139;49.372;8.580;2023-08-31T14:39:54;2.33;;;1.60;;
32786;SDS011;19139;49.372;8.580;2023-08-31T14:42:20;3.37;;;2.23;;
32786;SDS011;19139;49.372;8.580;2023-08-31T14:44:48;3.97;;;1.70;;
32786;SDS011;19139;49.372;8.580;2023-08-31T14:47:17;3.10;;;2.10;;
32786;SDS011;19139;49.372;8.580;2023-08-31T14:49:44;3.37;;;1.63;;
32786;SDS011;19139;49.372;8.580;2023-08-31T14:52:10;5.23;;;2.20;;
32786;SDS011;19139;49.372;8.580;2023-08-31T14:54:37;4.80;;;2.37;;
32786;SDS011;19139;49.372;8.580;2023-08-31T14:57:04;3.80;;;2.07;;
32786;SDS011;19139;49.372;8.580;2023-08-31T14:59:30;3.83;;;1.90;;
32786;SDS011;19139;49.372;8.580;2023-08-31T15:01:57;4.63;;;2.13;;
32786;SDS011;19139;49.372;8.580;2023-08-31T15:04:24;3.07;;;1.80;;
32786;SDS011;19139;49.372;8.580;2023-08-31T15:06:52;4.30;;;2.43;;
32786;SDS011;19139;49.372;8.580;2023-08-31T15:09:20;3.53;;;1.77;;
32786;SDS011;19139;49.372;8.580;2023-08-31T15:11:46;4.00;;;2.47;;
32786;SDS011;19139;49.372;8.580;2023-08-31T15:14:13;3.30;;;1.93;;
32786;SDS011;19139;49.372;8.580;2023-08-31T15:16:40;3.90;;;1.83;;